Pahrump, Nevada Weather observations

Data are for observation ending at time listed.
 Day   Time    Ave.   Ave.  Ave.  Vector   Max.   Stn.    Total    Solar   Ave.  
  of    of     Air    Rel.  Wind   Wind    Wind   Baro.  Precip.   Rad.    Soil  
Year   Day     Temp.  Hum.  Speed  Dir.    Gust   Pres.                    Temp. 
2022   (PST)    F      %     mph   deg.    mph     mb.     in.     W/m2     F   
------------------------------------------------------------------------------
 226    4:00   79.6    47    2.3   322      3.8   923.0    0.00       0    89.2
 226    4:10   79.6    46    2.3   344      3.7   923.0    0.00       0    89.1
 226    4:20   80.0    45    1.5   353      3.0   923.0    0.00       0    89.0
 226    4:30   80.2    45    1.4    54      2.9   923.0    0.00       0    88.9
 226    4:40   80.3    45    0.6    18      1.8   923.0    0.00       0    88.8
 226    4:50   80.4    43    2.1    80      3.1   923.1    0.00       0    88.8
 226    5:00   80.5    44    0.7    93      2.5   923.1    0.00       3    88.7
 226    5:10   79.8    46    1.1   310      2.4   923.1    0.00       3    88.6
 226    5:20   79.5    46    0.0   316      0.1   923.1    0.00       4    88.5
 226    5:30   79.9    44    0.0   310      0.1   923.2    0.00      15    88.4
 226    5:40   79.2    46    0.1   310      0.1   923.3    0.00      29    88.3
 226    5:50   78.6    47    0.1   299      0.1   923.3    0.00      47    88.2
 226    6:00   78.5    50    0.1   265      0.1   923.4    0.00      67    88.2
 226    6:10   79.2    48    0.1   271      0.1   923.4    0.00      92    88.1
 226    6:20   80.4    46    0.1   282      0.1   923.5    0.00     123    88.1
 226    6:30   81.3    44    0.1   277      0.7   923.6    0.00     160    88.0
 226    6:40   82.6    41    0.7   275      2.0   923.8    0.00     274    88.0
 226    6:50   83.9    38    1.2   254      2.9   924.0    0.00     406    88.1
 226    7:00   85.2    36    1.0   286      2.7   924.1    0.00     402    88.1
 226    7:10   86.5    34    0.8   314      2.7   924.3    0.00     417    88.2
 226    7:20   87.5    33    0.4   240      1.9   924.5    0.00     436    88.3
 226    7:30   88.6    33    0.8   161      1.8   924.6    0.00     357    88.4
 226    7:40   88.8    32    1.4    89      3.6   924.7    0.00     261    88.5
 226    7:50   88.9    32    2.0   162      4.3   924.7    0.00     264    88.6
 226    8:00   89.2    32    3.1   153      7.0   924.6    0.00     335    88.8
 226    8:10   89.9    31    4.9   180      9.9   924.6    0.00     490    88.9
 226    8:20   90.3    31    4.7   180      8.6   924.6    0.00     473    89.0
 226    8:30   91.1    30    5.5   175      9.4   924.7    0.00     594    89.1
 226    8:40   91.4    29    6.0   170      9.7   924.8    0.00     653    89.2
 226    8:50   92.0    28    5.0   177      9.6   924.8    0.00     683    89.4
 226    9:00   92.8    26    5.2   197     11.4   924.9    0.00     707    89.5
 226    9:10   93.2    25    3.8   229      7.5   925.0    0.00     684    89.8
 226    9:20   94.2    25    4.1   237      9.3   925.2    0.00     716    90.0
 226    9:30   94.1    24    7.1   218     12.1   925.3    0.00     627    90.1
 226    9:40   94.1    23    5.2   196     10.7   925.4    0.00     573    90.2
 226    9:50   94.9    21    5.3   178     14.8   925.5    0.00     162    90.3
 226   10:00   95.3    21    3.6   201      8.4   925.5    0.00     158    90.5
 226   10:10   95.7    20    5.7   153     11.0   925.5    0.00       1    90.6
 226   10:20   96.2    17    4.4   195     12.2   925.6    0.00     421    90.8
 226   10:30   96.3    16    3.4   232      7.8   925.6    0.00     904    91.0
 226   10:40   97.3    14    2.8   203      7.5   925.5    0.00      72    91.1
 226   10:50   97.9    14    4.5   181      9.1   925.5    0.00     580    91.3
 226   11:00   98.1    15    2.5   231      6.1   925.5    0.00     152    91.6
 226   11:10   98.0    14    3.1   207      9.1   925.5    0.00       0    92.2
 226   11:20   98.1    15    6.6   166     14.2   925.4    0.00       0    92.8
 226   11:30   98.3    15    3.7   184     11.0   925.3    0.00       0    93.6
 226   11:40   98.7    15    3.6   177      7.7   925.2    0.00       0    94.5
 226   11:50   99.1    14    3.3   244      8.1   925.2    0.00       0    95.4
 226   12:00   99.5    14    5.7   117     10.2   925.2    0.00       0    96.3
 226   12:10   99.0    14    5.8    38     15.3   925.1    0.00       0    97.2
 226   12:20   99.6    13    2.7   239      7.3   925.2    0.00       0    98.1
 226   12:30  100.5    13    6.4   182     12.5   925.1    0.00       0    98.9
 226   12:40  100.4    14    3.2   221      9.5   925.1    0.00       4    99.6
 226   12:50   99.4    14    3.1   201      8.6   925.0    0.00       0    100.4
 226   13:00  100.9    14    3.3   220      6.6   924.9    0.00       1    101.2
 226   13:10  101.1    14    4.5   213     10.7   924.8    0.00       2    102.0
 226   13:20  100.1    14    4.3   279     10.2   924.7    0.00       0    102.6
 226   13:30  100.5    13    2.8   246      8.2   924.5    0.00       0    103.2
 226   13:40  101.0    13    3.3   218     10.0   924.3    0.00       0    103.7
 226   13:50  100.9    13    2.5   229      9.1   924.1    0.00       0    104.1
 226   14:00  101.1    12    2.6   144      6.1   923.8    0.00       0    104.5
 226   14:10  101.9    12    3.9   251     10.2   923.7    0.00       0    104.7
 226   14:20  100.9    12    3.6   265      8.7   923.6    0.00       0    105.0
 226   14:30  101.6    11    4.4   284     10.3   923.5    0.00       0    105.1
 226   14:40  101.5    12    4.5   215     11.2   923.4    0.00       0    105.2
 226   14:50  101.6    12    3.9   264      9.1   923.2    0.00       0    105.3
 226   15:00  101.5    12    3.6   249      6.9   923.1    0.00       0    105.2
 226   15:10  102.2    12    4.0   268      8.5   923.1    0.00       0    105.2
 226   15:20  101.8    12    3.6   324      8.3   923.0    0.00       0    105.1
 226   15:30  102.0    12    3.2   324      7.4   922.9    0.00       0    105.0
 226   15:40  102.3    12    4.4   296      9.7   922.8    0.00       0    104.8
 226   15:50  101.4    12    4.8   270      9.8   922.8    0.00       0    104.7
 226   16:00  101.7    12    3.3   256      6.3   922.8    0.00       0    104.4
 226   16:10  102.1    12    3.5   293      6.6   922.7    0.00       0    104.1
 226   16:20  102.2    12    1.5   261      3.4   922.6    0.00       0    103.8
 226   16:30  103.6    12    3.3   347      6.7   922.6    0.00       0    103.5
 226   16:40  102.5    12    3.9   315      7.0   922.5    0.00       2    103.2
 226   16:50  102.7    12    3.3   316      9.3   922.4    0.00       3    103.0
 226   17:00  100.2    12    5.9   315     10.4   922.4    0.00      27    102.8
 226   17:10   99.6    12    5.1   330     10.2   922.1    0.00       0    102.6
 226   17:20  100.9    12    2.5   268      5.5   921.8    0.00       0    102.4
 226   17:30  101.4    12    2.5   277      7.7   921.8    0.00       0    102.1
 226   17:40  101.1    12    1.8   274      4.0   921.9    0.00       0    101.9
 226   17:50  101.1    12    1.4   245      3.4   922.0    0.00       0    101.7
 226   18:00  100.3    12    3.5   172     14.6   922.1    0.00       0    101.5
 226   18:10   97.9    18    4.5   108     17.1   921.9    0.00       0    101.4
 226   18:20   96.2    19   15.7    99     25.4   921.7    0.00      24    101.2
 226   18:30   95.0    21   14.8    95     21.5   921.6    0.00       0    100.9
 226   18:40   95.1    20   10.8   108     18.0   921.5    0.00       1    100.7
 226   18:50   95.2    23    5.4   136     13.2   921.4    0.00       0    100.4
 226   19:00   94.9    22    0.1   130      0.1   921.3    0.00       0    100.1
 226   19:10   94.7    24    2.0   150      8.0   921.3    0.00       0    99.8
 226   19:20   94.2    26    5.1   143      8.6   921.3    0.00       0    99.6
 226   19:30   93.8    26    5.6   161     10.8   921.3    0.00       0    99.4
 226   19:40   93.5    26    4.2   185     10.6   921.3    0.00       0    99.1
 226   19:50   92.9    26    3.0   202      7.7   921.4    0.00       0    98.9
 226   20:00   91.9    27    4.9   193     11.1   921.6    0.00       0    98.6
 226   20:10   91.4    28    4.8   185     10.3   921.7    0.00       0    98.4
 226   20:20   91.2    29    2.2   177      9.6   921.8    0.00       0    98.2
 226   20:30   90.9    29    2.3   184     11.1   921.8    0.00       0    97.9
 226   20:40   90.6    29    5.1   172     12.8   921.9    0.00       0    97.7
 226   20:50   90.4    30    2.3   175     11.9   921.9    0.00       0    97.5
 226   21:00   90.2    30    0.1   170      0.3   921.9    0.00       0    97.3
 226   21:10   90.0    30    6.5   169     12.6   921.9    0.00       0    97.1
 226   21:20   89.9    30    8.3   163     14.9   921.9    0.00       0    96.9
 226   21:30   89.8    30    7.4   163     12.1   921.9    0.00       0    96.7
 226   21:40   89.6    30    5.3   158      8.6   921.9    0.00       0    96.5
 226   21:50   89.6    30    4.3   175      7.2   921.8    0.00       0    96.4
 226   22:00   89.5    30    3.8   178      7.5   921.7    0.00       0    96.2
 226   22:10   89.0    31    1.4   206      3.2   921.7    0.00       0    96.0
 226   22:20   87.5    32    1.9   279      4.4   921.7    0.00       0    95.9
 226   22:30   86.4    33    2.1   294      4.5   921.8    0.00       0    95.7
 226   22:40   86.2    33    2.4   233      5.5   921.7    0.00       0    95.5
 226   22:50   86.7    36    1.9   208      8.2   921.7    0.00       0    95.3
 226   23:00   86.8    37    0.1   200      0.1   921.9    0.00       0    95.2
 226   23:10   86.3    37    0.1   185      0.1   922.1    0.00       0    95.0
 226   23:20   85.6    38    1.3   192      9.4   922.2    0.00       0    94.8
 226   23:30   85.4    38    5.1   189     10.4   922.1    0.00       0    94.7
 226   23:40   85.5    38    7.5   193     14.0   922.1    0.00       0    94.5
 226   23:50   85.4    38    6.8   201     13.7   922.1    0.00       0    94.4
 227    0:00   84.8    40    6.2   200     12.9   922.3    0.00       0    94.2
 227    0:10   84.0    41    5.5   203     11.8   922.2    0.00       0    94.0
 227    0:20   83.6    42    5.7   202     13.0   922.2    0.00       0    93.8
 227    0:30   83.7    42    6.4   196     12.6   922.2    0.00       0    93.7
 227    0:40   83.6    43    6.4   204     11.1   922.2    0.00       0    93.5
 227    0:50   83.2    44    7.9   176     12.3   922.2    0.00       0    93.3
 227    1:00   83.0    44    6.5   176     12.1   922.2    0.00       0    93.1
 227    1:10   83.0    44    6.6   160     12.7   922.1    0.00       0    93.0
 227    1:20   82.7    45    8.2   146     11.6   922.0    0.00       0    92.8
 227    1:30   82.6    45    5.5   155      9.9   921.9    0.00       0    92.7
 227    1:40   82.7    45    4.6   160      7.5   921.8    0.00       0    92.6
 227    1:50   82.3    46    3.0   199      6.4   921.8    0.00       0    92.4
 227    2:00   81.0    49    2.3   221      5.1   921.7    0.00       0    92.3
 227    2:10   80.7    49    1.9   195      6.4   921.7    0.00       0    92.2
 227    2:20   81.1    48    3.3   153      5.6   921.6    0.00       0    92.1
 227    2:30   81.1    48    2.9   153      5.4   921.5    0.00       0    91.9
 227    2:40   81.1    49    2.8   156      4.6   921.4    0.00       0    91.8
 227    2:50   80.9    49    3.0   170      4.5   921.4    0.00       0    91.7
 227    3:00   80.8    49    2.4   143      3.9   921.3    0.00       0    91.6
 227    3:10   80.4    50    1.9   120      3.1   921.2    0.00       0    91.5
 227    3:20   80.2    50    1.3   112      2.4   921.2    0.00       0    91.3
 227    3:30   79.9    51    0.9    94      2.0   921.1    0.00       0    91.2
 227    3:40   79.7    50    2.2   102      3.4   921.1    0.00       0    91.1
 227    3:50   79.6    50    2.8   113      3.7   921.0    0.00       0    91.0

Return to Pahrump, Nevada graphs page.


Western Regional Climate Center,wrcc@dri.edu